Time;durP1;ratioP1;P1;durP2;ratioP2;P2;SDS_P1;SDS_P2;PMS_P1;PMS_P2;Temp;Humidity;BMP_temperature;BMP_pressure;BME280_temperature;BME280_humidity;BME280_pressure;Samples;Min_cycle;Max_cycle;Signal;HPM_P1;HPM_P2
2023/11/01 00:02:04;;;;;;;1.42;1.42;;;;;;;15.43;74.77;96564.59;5023242;28;20421;-54
2023/11/01 00:04:31;;;;;;;1.30;1.30;;;;;;;15.08;74.79;96534.94;5023971;28;20057;-54
2023/11/01 00:06:58;;;;;;;1.30;1.30;;;;;;;15.28;75.09;96540.75;5024600;28;20053;-55
2023/11/01 00:09:25;;;;;;;1.33;1.33;;;;;;;14.90;74.85;96486.91;5024319;28;20045;-54
2023/11/01 00:11:52;;;;;;;1.42;1.42;;;;;;;15.41;75.27;96559.41;5024572;28;20399;-56
2023/11/01 00:14:18;;;;;;;1.30;1.30;;;;;;;15.35;75.46;96558.22;5024336;28;20569;-54
2023/11/01 00:16:45;;;;;;;1.40;1.40;;;;;;;15.28;75.97;96555.50;5024656;28;20053;-54
2023/11/01 00:19:12;;;;;;;1.30;1.30;;;;;;;15.24;75.83;96551.94;5024303;28;20048;-55
2023/11/01 00:21:39;;;;;;;1.35;1.35;;;;;;;15.04;76.37;96542.56;5024531;28;20057;-54
2023/11/01 00:24:06;;;;;;;1.25;1.25;;;;;;;15.21;76.00;96543.63;5024298;28;20069;-55
2023/11/01 00:26:33;;;;;;;1.25;1.25;;;;;;;15.27;75.56;96539.97;5021872;28;20065;-54
2023/11/01 00:28:59;;;;;;;1.30;1.30;;;;;;;15.24;75.95;96546.38;5009025;28;20049;-54
2023/11/01 00:31:26;;;;;;;1.15;1.15;;;;;;;15.23;76.03;96550.38;5006404;28;20053;-54
2023/11/01 00:33:53;;;;;;;1.38;1.38;;;;;;;15.12;77.00;96558.84;5024373;28;20049;-55
2023/11/01 00:36:19;;;;;;;1.30;1.30;;;;;;;15.06;78.05;96556.91;5024138;28;20504;-56
2023/11/01 00:38:46;;;;;;;1.13;1.13;;;;;;;14.94;77.94;96521.13;5023072;28;20049;-54
2023/11/01 00:41:13;;;;;;;1.20;1.20;;;;;;;15.18;77.92;96542.44;5023631;28;20068;-55
2023/11/01 00:43:39;;;;;;;1.20;1.20;;;;;;;15.10;78.04;96507.44;5023255;28;20050;-54
2023/11/01 00:46:06;;;;;;;1.38;1.38;;;;;;;15.47;76.14;96548.59;5023421;28;20171;-55
2023/11/01 00:48:33;;;;;;;1.40;1.40;;;;;;;14.89;76.41;96476.97;5023739;28;20052;-56
2023/11/01 00:51:00;;;;;;;1.20;1.20;;;;;;;15.13;76.51;96554.84;5023562;28;20140;-55
2023/11/01 00:53:26;;;;;;;1.30;1.30;;;;;;;15.16;76.55;96545.66;5023725;28;20053;-55
2023/11/01 00:55:53;;;;;;;1.40;1.40;;;;;;;15.19;75.98;96555.19;5023521;28;20758;-56
2023/11/01 00:58:21;;;;;;;1.40;1.40;;;;;;;15.06;76.72;96568.06;5024076;28;20061;-54
2023/11/01 01:00:48;;;;;;;1.45;1.45;;;;;;;15.03;76.72;96568.88;5023621;28;20107;-55
2023/11/01 01:03:15;;;;;;;1.30;1.30;;;;;;;15.08;76.76;96568.41;5023998;28;20144;-55
2023/11/01 01:05:42;;;;;;;1.20;1.20;;;;;;;15.02;76.95;96570.06;5005699;28;20140;-54
2023/11/01 01:08:09;;;;;;;1.20;1.20;;;;;;;14.80;77.18;96515.66;5023566;28;20144;-55
2023/11/01 01:10:36;;;;;;;1.30;1.30;;;;;;;15.13;76.89;96554.84;5023464;28;20115;-57
2023/11/01 01:13:03;;;;;;;1.30;1.30;;;;;;;15.17;76.62;96549.25;5023918;28;20099;-54
2023/11/01 01:15:29;;;;;;;1.30;1.30;;;;;;;15.18;77.07;96548.03;5023565;28;20551;-56
2023/11/01 01:17:56;;;;;;;1.30;1.30;;;;;;;15.05;76.89;96511.47;5023990;28;20053;-55
2023/11/01 01:20:23;;;;;;;1.20;1.20;;;;;;;15.33;76.90;96543.91;5023373;28;20496;-55
2023/11/01 01:22:50;;;;;;;1.38;1.38;;;;;;;15.32;77.00;96547.88;5023632;28;20138;-56
2023/11/01 01:25:17;;;;;;;1.42;1.42;;;;;;;14.95;76.87;96506.78;5023595;28;20041;-54
2023/11/01 01:27:44;;;;;;;1.17;1.17;;;;;;;15.37;76.96;96580.94;5024014;28;20084;-54
2023/11/01 01:30:11;;;;;;;1.30;1.30;;;;;;;15.26;77.12;96560.72;5023421;28;20057;-54
2023/11/01 01:32:38;;;;;;;1.30;1.30;;;;;;;14.69;80.15;96565.13;5038826;28;20050;-54
2023/11/01 01:35:05;;;;;;;1.30;1.30;;;;;;;14.89;79.30;96563.44;5023140;28;20049;-55
2023/11/01 01:37:32;;;;;;;1.20;1.20;;;;;;;14.45;79.53;96515.91;5023390;28;20136;-54
2023/11/01 01:39:59;;;;;;;1.27;1.27;;;;;;;14.82;79.53;96546.72;5022801;28;20133;-56
2023/11/01 01:42:26;;;;;;;1.33;1.33;;;;;;;14.94;79.00;96532.28;5012018;28;20050;-55
2023/11/01 01:44:53;;;;;;;1.30;1.30;;;;;;;15.06;78.26;96534.59;5003353;28;20053;-57
2023/11/01 01:47:20;;;;;;;1.30;1.30;;;;;;;15.11;77.93;96536.94;5004061;28;20137;-56
2023/11/01 01:49:47;;;;;;;1.48;1.48;;;;;;;14.90;78.06;96507.22;5005013;28;20050;-56
2023/11/01 01:52:15;;;;;;;1.40;1.40;;;;;;;14.82;77.94;96518.84;5007597;28;20433;-56
2023/11/01 01:54:42;;;;;;;1.20;1.20;;;;;;;14.39;79.52;96500.84;5007477;28;20046;-54
2023/11/01 01:57:10;;;;;;;1.33;1.33;;;;;;;14.62;80.38;96537.31;5007683;28;20054;-54
2023/11/01 01:59:37;;;;;;;1.20;1.20;;;;;;;14.69;80.25;96545.63;5007339;28;20061;-54
2023/11/01 02:02:04;;;;;;;1.08;1.08;;;;;;;14.57;81.57;96546.13;5007265;28;20061;-55
2023/11/01 02:04:31;;;;;;;1.20;1.20;;;;;;;14.15;81.10;96469.13;5007283;28;20452;-54
2023/11/01 02:06:58;;;;;;;1.30;1.30;;;;;;;14.34;80.63;96481.75;5005279;28;20050;-54
2023/11/01 02:09:25;;;;;;;1.10;1.10;;;;;;;14.48;82.00;96560.50;5006987;28;20061;-54
2023/11/01 02:11:52;;;;;;;1.25;1.25;;;;;;;14.75;81.59;96564.31;5007163;28;20064;-56
2023/11/01 02:14:21;;;;;;;1.13;1.13;;;;;;;14.73;82.17;96543.63;5006693;28;20164;-56
2023/11/01 02:16:50;;;;;;;1.20;1.20;;;;;;;14.52;81.71;96504.75;5006988;28;20157;-54
2023/11/01 02:19:17;;;;;;;1.25;1.25;;;;;;;14.77;82.00;96550.75;5006557;28;20077;-56
2023/11/01 02:21:43;;;;;;;1.30;1.30;;;;;;;14.61;82.94;96560.81;5007001;28;20096;-55
2023/11/01 02:24:10;;;;;;;1.15;1.15;;;;;;;14.74;82.61;96557.16;4989151;28;20065;-54
2023/11/01 02:26:37;;;;;;;1.10;1.10;;;;;;;14.92;81.57;96557.03;5006349;28;20066;-55
2023/11/01 02:29:05;;;;;;;1.20;1.20;;;;;;;14.84;81.56;96547.91;5022878;28;20049;-56
2023/11/01 02:31:31;;;;;;;1.40;1.40;;;;;;;14.99;81.18;96568.91;5026138;28;20473;-54
2023/11/01 02:33:58;;;;;;;1.17;1.17;;;;;;;14.98;80.78;96572.09;5025639;28;20049;-55
2023/11/01 02:36:26;;;;;;;1.27;1.27;;;;;;;14.97;80.95;96573.28;5026125;28;20045;-55
2023/11/01 02:38:52;;;;;;;1.33;1.33;;;;;;;14.95;80.21;96587.66;5025055;28;20065;-55
2023/11/01 02:41:19;;;;;;;1.20;1.20;;;;;;;14.90;80.39;96571.38;5026024;28;20053;-56
2023/11/01 02:43:46;;;;;;;1.20;1.20;;;;;;;14.77;80.67;96577.84;5025957;28;20136;-55
2023/11/01 02:46:12;;;;;;;1.25;1.25;;;;;;;14.87;80.33;96582.56;5025711;28;20440;-55
2023/11/01 02:48:39;;;;;;;1.30;1.30;;;;;;;14.79;80.41;96581.00;5025661;28;20507;-54
2023/11/01 02:51:06;;;;;;;1.30;1.30;;;;;;;14.78;80.77;96579.41;5025498;28;20053;-55
2023/11/01 02:53:33;;;;;;;1.20;1.20;;;;;;;14.83;80.58;96581.78;5025883;28;20053;-56
2023/11/01 02:55:59;;;;;;;1.20;1.20;;;;;;;14.86;80.12;96583.72;5025895;28;20057;-54
2023/11/01 02:58:28;;;;;;;1.23;1.23;;;;;;;14.83;80.41;96581.78;5025749;28;20056;-55
2023/11/01 03:00:55;;;;;;;1.30;1.30;;;;;;;14.87;80.34;96593.72;5023576;28;20050;-57
2023/11/01 03:03:22;;;;;;;1.27;1.27;;;;;;;14.88;80.35;96596.09;5024175;28;20056;-55
2023/11/01 03:05:49;;;;;;;1.27;1.27;;;;;;;14.91;80.03;96594.47;5025537;28;20331;-54
2023/11/01 03:08:16;;;;;;;1.17;1.17;;;;;;;14.91;79.67;96594.47;5025393;28;20080;-54
2023/11/01 03:10:43;;;;;;;1.15;1.15;;;;;;;14.88;79.81;96598.88;5024863;28;20496;-56
2023/11/01 03:13:09;;;;;;;1.20;1.20;;;;;;;14.86;80.01;96592.91;5025739;28;20152;-54
2023/11/01 03:15:37;;;;;;;1.42;1.42;;;;;;;14.75;79.84;96564.31;5025140;28;20049;-54
2023/11/01 03:18:04;;;;;;;1.23;1.23;;;;;;;14.93;79.03;96584.50;5024227;28;20084;-54
2023/11/01 03:20:32;;;;;;;1.20;1.20;;;;;;;14.62;78.91;96526.94;5023768;28;20085;-54
2023/11/01 03:23:00;;;;;;;1.30;1.30;;;;;;;14.88;78.69;96572.97;5025441;28;20140;-57
2023/11/01 03:25:27;;;;;;;1.15;1.15;;;;;;;15.11;78.51;96593.50;5025086;28;20049;-55
2023/11/01 03:27:54;;;;;;;1.40;1.40;;;;;;;15.03;78.82;96599.56;5023915;28;20041;-54
2023/11/01 03:30:24;;;;;;;1.25;1.25;;;;;;;14.96;78.98;96588.44;5007049;28;20049;-54
2023/11/01 03:32:51;;;;;;;1.35;1.35;;;;;;;14.99;79.14;96615.53;5025039;28;20055;-54
2023/11/01 03:35:18;;;;;;;1.30;1.30;;;;;;;14.99;79.29;96618.31;5024535;28;20045;-55
2023/11/01 03:37:44;;;;;;;1.27;1.27;;;;;;;14.39;79.43;96551.00;5024892;28;20053;-57
2023/11/01 03:40:11;;;;;;;1.10;1.10;;;;;;;14.86;79.38;96625.56;5024866;28;20050;-54
2023/11/01 03:42:38;;;;;;;1.30;1.30;;;;;;;14.29;79.51;96524.00;5024395;28;20053;-55
2023/11/01 03:45:05;;;;;;;1.20;1.20;;;;;;;14.16;80.29;96571.00;5024556;28;20079;-54
2023/11/01 03:47:32;;;;;;;1.25;1.25;;;;;;;14.72;80.81;96614.50;5024387;28;20137;-54
2023/11/01 03:50:00;;;;;;;1.30;1.30;;;;;;;14.85;80.21;96601.69;5024279;28;20550;-55
2023/11/01 03:52:27;;;;;;;1.20;1.20;;;;;;;14.81;79.91;96596.13;5024855;28;20076;-54
2023/11/01 03:54:54;;;;;;;1.17;1.17;;;;;;;14.80;79.86;96599.31;5024897;28;20113;-54
2023/11/01 03:57:20;;;;;;;1.27;1.27;;;;;;;14.88;79.60;96612.00;5007026;28;20049;-54
2023/11/01 03:59:47;;;;;;;1.27;1.27;;;;;;;14.92;79.63;96616.38;5024870;28;20061;-54
2023/11/01 04:02:14;;;;;;;1.10;1.10;;;;;;;14.96;79.58;96613.56;5024648;28;20409;-55
2023/11/01 04:04:41;;;;;;;1.30;1.30;;;;;;;14.99;79.13;96612.72;5024323;28;20078;-55
2023/11/01 04:07:08;;;;;;;1.25;1.25;;;;;;;14.71;79.46;96566.34;5024610;28;20111;-55
2023/11/01 04:09:34;;;;;;;1.35;1.35;;;;;;;14.97;79.43;96602.00;5023941;28;20598;-54
2023/11/01 04:12:01;;;;;;;1.30;1.30;;;;;;;15.08;78.66;96604.69;5023632;28;20475;-54
2023/11/01 04:14:28;;;;;;;1.20;1.20;;;;;;;15.01;79.14;96616.72;5024136;28;20075;-55
2023/11/01 04:16:55;;;;;;;1.30;1.30;;;;;;;14.99;79.03;96604.38;5006807;28;20049;-54
2023/11/01 04:19:22;;;;;;;1.30;1.30;;;;;;;14.96;79.36;96607.97;5024098;28;20159;-54
2023/11/01 04:21:49;;;;;;;1.20;1.20;;;;;;;14.48;79.34;96531.84;5024597;28;20092;-55
2023/11/01 04:24:16;;;;;;;1.20;1.20;;;;;;;14.41;79.77;96532.69;5006221;28;20263;-55
2023/11/01 04:26:45;;;;;;;1.25;1.25;;;;;;;14.35;80.33;96525.16;5006358;28;20136;-55
2023/11/01 04:29:12;;;;;;;1.10;1.10;;;;;;;14.78;81.19;96629.59;5019410;28;20046;-56
2023/11/01 04:31:38;;;;;;;1.20;1.20;;;;;;;14.30;81.52;96570.16;5024164;28;20060;-57
2023/11/01 04:34:05;;;;;;;1.20;1.20;;;;;;;14.66;81.36;96593.84;5024227;28;21159;-55
2023/11/01 04:36:35;;;;;;;1.35;1.35;;;;;;;14.90;80.82;96617.97;5024212;28;20064;-56
2023/11/01 04:39:03;;;;;;;1.20;1.20;;;;;;;14.85;80.98;96618.41;5024128;28;20057;-55
2023/11/01 04:41:30;;;;;;;1.30;1.30;;;;;;;14.44;81.23;96570.88;5024465;28;20141;-55
2023/11/01 04:43:57;;;;;;;1.20;1.20;;;;;;;14.77;81.31;96600.94;5022940;28;20056;-55
2023/11/01 04:46:23;;;;;;;1.13;1.13;;;;;;;14.76;81.17;96618.84;5024110;28;20058;-56
2023/11/01 04:48:50;;;;;;;1.48;1.48;;;;;;;14.90;81.14;96631.94;5023885;28;20046;-55
2023/11/01 04:51:17;;;;;;;1.30;1.30;;;;;;;15.01;80.52;96632.66;5023552;28;20053;-55
2023/11/01 04:53:44;;;;;;;1.30;1.30;;;;;;;15.10;80.21;96642.16;5023689;28;20061;-55
2023/11/01 04:56:11;;;;;;;1.10;1.10;;;;;;;15.09;80.70;96645.34;5023868;28;20053;-61
2023/11/01 04:58:38;;;;;;;1.40;1.40;;;;;;;14.69;80.22;96588.25;5022425;28;20570;-61
2023/11/01 05:01:05;;;;;;;1.20;1.20;;;;;;;15.11;79.74;96668.84;5023678;28;20063;-60
2023/11/01 05:03:36;;;;;;;1.10;1.10;;;;;;;14.69;79.87;96634.84;5023644;28;20081;-61
2023/11/01 05:06:04;;;;;;;1.20;1.20;;;;;;;14.70;81.09;96673.47;5023789;28;20049;-61
2023/11/01 05:08:31;;;;;;;1.30;1.30;;;;;;;14.80;80.67;96675.41;5023481;28;20045;-61
2023/11/01 05:10:58;;;;;;;1.30;1.30;;;;;;;14.80;80.51;96677.41;5022094;28;20058;-61
2023/11/01 05:13:24;;;;;;;1.20;1.20;;;;;;;14.75;80.36;96686.19;5023599;28;20112;-61
2023/11/01 05:15:55;;;;;;;1.20;1.20;;;;;;;14.60;81.75;96674.31;5023576;28;20136;-61
2023/11/01 05:18:24;;;;;;;1.10;1.10;;;;;;;14.70;81.66;96678.25;5023534;28;20052;-61
2023/11/01 05:20:51;;;;;;;1.27;1.27;;;;;;;14.83;81.03;96677.38;5023323;28;20103;-61
2023/11/01 05:23:18;;;;;;;1.30;1.30;;;;;;;14.71;80.56;96646.38;5023316;28;20072;-61
2023/11/01 05:25:47;;;;;;;1.30;1.30;;;;;;;14.95;80.61;96679.69;5025906;28;20060;-61
2023/11/01 05:28:15;;;;;;;1.40;1.40;;;;;;;14.92;80.67;96658.19;5026862;28;20526;-61
2023/11/01 05:30:42;;;;;;;1.35;1.35;;;;;;;15.07;80.42;96681.22;5026607;28;20065;-61
2023/11/01 05:33:08;;;;;;;1.33;1.33;;;;;;;15.13;80.22;96699.09;5026317;28;20112;-61
2023/11/01 05:35:36;;;;;;;1.23;1.23;;;;;;;15.34;79.03;96695.38;5025838;28;20419;-61
2023/11/01 05:38:05;;;;;;;1.40;1.40;;;;;;;15.37;79.06;96700.94;5025778;28;20050;-61
2023/11/01 05:40:32;;;;;;;1.30;1.30;;;;;;;15.34;79.67;96703.75;5008093;28;20042;-61
2023/11/01 05:42:58;;;;;;;1.33;1.33;;;;;;;15.50;79.08;96710.47;5008307;28;20605;-61
2023/11/01 05:45:25;;;;;;;1.23;1.23;;;;;;;15.20;79.10;96671.19;5007587;28;20045;-61
2023/11/01 05:47:52;;;;;;;1.48;1.48;;;;;;;15.26;79.43;96652.78;5009234;28;20056;-61
2023/11/01 05:50:25;;;;;;;1.27;1.27;;;;;;;15.30;78.60;96631.22;5026664;28;20049;-61
2023/11/01 05:52:54;;;;;;;1.40;1.40;;;;;;;15.79;78.01;96686.66;5026851;28;20497;-61
2023/11/01 05:55:21;;;;;;;1.35;1.35;;;;;;;15.72;77.56;96694.31;5026681;28;20420;-61
2023/11/01 05:57:59;;;;;;;1.48;1.48;;;;;;;15.72;77.24;96689.53;5026558;28;20058;-61
2023/11/01 06:00:26;;;;;;;1.42;1.42;;;;;;;15.62;77.75;96679.25;5026460;28;20132;-61
2023/11/01 06:02:53;;;;;;;1.50;1.50;;;;;;;15.81;76.96;96692.63;5026500;28;20057;-61
2023/11/01 06:05:22;;;;;;;1.30;1.30;;;;;;;15.95;76.08;96689.72;5026028;28;20064;-61
2023/11/01 06:07:50;;;;;;;1.40;1.40;;;;;;;15.93;76.15;96686.53;5026224;28;20481;-61
2023/11/01 06:10:17;;;;;;;1.52;1.52;;;;;;;16.04;76.31;96687.25;5026438;28;20046;-60
2023/11/01 06:12:44;;;;;;;1.35;1.35;;;;;;;16.09;75.93;96664.41;5026203;28;20142;-61
2023/11/01 06:15:11;;;;;;;1.50;1.50;;;;;;;16.33;74.65;96691.31;5025981;28;20062;-60
2023/11/01 06:17:38;;;;;;;1.50;1.50;;;;;;;16.19;75.37;96699.03;5009112;28;20107;-61
2023/11/01 06:20:06;;;;;;;1.40;1.40;;;;;;;16.11;75.74;96705.91;5026143;28;20045;-61
2023/11/01 06:22:33;;;;;;;1.40;1.40;;;;;;;15.81;76.44;96692.63;5026839;28;20056;-61
2023/11/01 06:25:01;;;;;;;1.40;1.40;;;;;;;15.69;77.99;96723.88;5026170;28;20057;-61
2023/11/01 06:27:28;;;;;;;1.48;1.48;;;;;;;15.58;78.95;96751.09;5026078;28;20063;-60
2023/11/01 06:29:55;;;;;;;1.40;1.40;;;;;;;15.32;80.30;96715.34;5026024;28;20574;-60
2023/11/01 06:32:22;;;;;;;1.25;1.25;;;;;;;15.67;79.67;96731.84;5026723;28;20172;-61
2023/11/01 06:34:49;;;;;;;1.60;1.60;;;;;;;15.87;78.82;96735.66;5026322;28;20053;-61
2023/11/01 06:37:15;;;;;;;1.30;1.30;;;;;;;15.75;78.20;96693.50;5024998;28;20063;-61
2023/11/01 06:39:42;;;;;;;1.35;1.35;;;;;;;16.20;77.47;96743.34;5024793;28;20077;-61
2023/11/01 06:42:09;;;;;;;1.60;1.60;;;;;;;16.38;76.92;96741.19;5024687;28;20045;-60
2023/11/01 06:44:35;;;;;;;1.42;1.42;;;;;;;16.63;76.37;96740.16;5025459;28;20056;-60
2023/11/01 06:47:02;;;;;;;1.60;1.60;;;;;;;16.81;74.65;96732.31;5026089;28;20046;-61
2023/11/01 06:49:29;;;;;;;1.60;1.60;;;;;;;16.84;73.81;96714.69;5024599;28;20056;-60
2023/11/01 06:51:58;;;;;;;1.58;1.58;;;;;;;16.86;73.66;96743.06;5025401;28;20438;-61
2023/11/01 06:54:24;;;;;;;1.60;1.60;;;;;;;14.76;72.82;96393.00;5002965;28;20045;-67
2023/11/01 06:56:51;;;;;;;1.60;1.60;;;;;;;16.00;72.46;96597.06;5016619;28;20496;-56
2023/11/01 06:59:18;;;;;;;1.80;1.80;;;;;;;15.57;71.53;96459.13;5008190;28;20041;-57
2023/11/01 07:01:45;;;;;;;1.52;1.52;;;;;;;17.51;71.41;96734.19;5023269;28;20056;-56
2023/11/01 07:04:12;;;;;;;1.70;1.70;;;;;;;17.08;70.83;96686.41;5023433;28;20131;-57
2023/11/01 07:06:41;;;;;;;1.70;1.70;;;;;;;17.60;70.40;96742.84;5006006;28;20049;-58
2023/11/01 07:09:09;;;;;;;1.80;1.80;;;;;;;17.48;70.98;96727.41;5028181;28;20053;-58
2023/11/01 07:11:36;;;;;;;2.00;2.00;;;;;;;17.90;69.98;96748.38;5022660;28;20141;-54
2023/11/01 07:14:06;;;;;;;1.85;1.85;;;;;;;18.22;69.07;96740.22;5023276;28;20504;-64
2023/11/01 07:16:39;;;;;;;1.88;1.88;;;;;;;18.52;67.24;96737.31;5021036;28;20499;-60
2023/11/01 07:19:06;;;;;;;1.70;1.70;;;;;;;18.68;66.87;96728.97;5012291;28;20053;-60
2023/11/01 07:21:33;;;;;;;1.70;1.70;;;;;;;18.72;66.00;96723.28;5022251;28;20083;-61
2023/11/01 07:23:59;;;;;;;1.90;1.90;;;;;;;18.94;64.68;96739.25;5027752;28;20175;-64
2023/11/01 07:26:26;;;;;;;1.80;1.80;;;;;;;19.20;63.82;96746.75;5025980;28;20057;-62
2023/11/01 07:28:53;;;;;;;2.17;2.17;;;;;;;19.39;63.91;96734.69;5025644;28;20154;-55
2023/11/01 07:31:20;;;;;;;2.33;2.33;;;;;;;19.60;63.06;96739.03;5020958;28;20077;-54
2023/11/01 07:33:47;;;;;;;2.08;2.08;;;;;;;19.82;61.91;96747.78;5022758;28;20103;-56
2023/11/01 07:36:13;;;;;;;2.10;2.10;;;;;;;19.94;60.94;96744.25;5008019;28;20050;-57
2023/11/01 07:38:40;;;;;;;1.90;1.90;;;;;;;19.80;60.94;96744.59;5016983;28;20101;-57
2023/11/01 07:41:10;;;;;;;2.40;2.30;;;;;;;19.74;61.08;96730.28;5014658;28;20076;-66
2023/11/01 07:43:39;;;;;;;2.20;2.20;;;;;;;20.30;60.29;96751.41;5011113;28;20045;-55
2023/11/01 07:46:07;;;;;;;2.20;2.20;;;;;;;20.42;59.28;96742.22;5021971;28;20041;-56
2023/11/01 07:48:35;;;;;;;2.20;2.20;;;;;;;20.47;58.75;96741.69;4999775;28;20119;-61
2023/11/01 07:51:05;;;;;;;2.10;2.10;;;;;;;20.40;57.58;96693.28;5023343;28;20217;-60
2023/11/01 07:53:32;;;;;;;2.30;2.30;;;;;;;20.34;56.98;96672.53;5017541;28;20561;-56
2023/11/01 07:55:59;;;;;;;2.03;2.03;;;;;;;20.93;56.66;96749.69;5023241;28;20128;-64
2023/11/01 07:58:26;;;;;;;2.28;2.28;;;;;;;21.08;56.46;96744.47;5023350;28;20057;-62
2023/11/01 08:00:53;;;;;;;2.10;2.10;;;;;;;21.30;55.12;96745.41;5022975;28;20061;-55
2023/11/01 08:03:20;;;;;;;2.08;2.08;;;;;;;21.45;55.01;96729.66;5006692;28;20441;-64
2023/11/01 08:05:47;;;;;;;2.20;2.20;;;;;;;21.31;54.68;96713.16;5023776;28;20132;-55
2023/11/01 08:08:14;;;;;;;2.30;2.30;;;;;;;21.28;53.18;96666.16;5021931;28;20049;-59
2023/11/01 08:10:41;;;;;;;2.30;2.25;;;;;;;21.85;52.60;96739.28;5022908;28;20049;-56
2023/11/01 08:13:08;;;;;;;2.40;2.40;;;;;;;21.45;52.90;96649.97;5005468;28;20452;-56
2023/11/01 08:15:36;;;;;;;2.30;2.30;;;;;;;22.07;52.21;96737.34;5005669;28;20556;-55
2023/11/01 08:18:02;;;;;;;2.20;2.20;;;;;;;21.75;52.25;96686.84;5022417;28;20077;-62
2023/11/01 08:20:30;;;;;;;2.55;2.45;;;;;;;22.36;50.57;96726.72;5017179;28;20060;-56
2023/11/01 08:22:57;;;;;;;2.50;2.40;;;;;;;22.44;50.25;96733.69;5021413;28;20538;-64
2023/11/01 08:25:24;;;;;;;2.60;2.50;;;;;;;22.51;49.91;96731.84;5022133;28;20049;-64
2023/11/01 08:27:51;;;;;;;2.72;2.63;;;;;;;22.30;49.67;96682.56;5022296;28;20947;-56
2023/11/01 08:30:18;;;;;;;2.75;2.65;;;;;;;22.67;49.58;96737.38;5023011;28;20132;-57
2023/11/01 08:32:45;;;;;;;2.55;2.45;;;;;;;22.74;49.42;96740.72;5001326;28;20053;-67
2023/11/01 08:35:12;;;;;;;2.17;2.17;;;;;;;22.69;49.40;96723.56;5010398;28;20509;-55
2023/11/01 08:37:40;;;;;;;2.80;2.70;;;;;;;23.04;48.12;96734.38;5019630;28;20046;-56
2023/11/01 08:40:07;;;;;;;2.75;2.65;;;;;;;22.65;47.58;96669.25;5003222;28;20528;-58
2023/11/01 08:42:34;;;;;;;2.92;2.83;;;;;;;23.00;46.38;96690.56;4996730;28;20050;-63
2023/11/01 08:45:01;;;;;;;3.10;3.00;;;;;;;23.28;46.28;96734.72;4989929;28;20054;-64
2023/11/01 08:47:35;;;;;;;2.65;2.55;;;;;;;23.50;45.58;96732.66;4998520;28;20054;-66
2023/11/01 08:50:03;;;;;;;2.70;2.60;;;;;;;23.62;45.62;96735.41;5000236;28;20108;-58
2023/11/01 08:52:32;;;;;;;2.70;2.60;;;;;;;23.52;44.78;96699.06;5000306;28;20525;-56
2023/11/01 08:55:00;;;;;;;3.00;2.90;;;;;;;23.03;43.43;96644.44;4998854;28;20144;-58
2023/11/01 08:57:27;;;;;;;2.63;2.53;;;;;;;22.79;44.34;96737.31;4987847;28;20049;-57
2023/11/01 08:59:57;;;;;;;3.30;3.20;;;;;;;23.11;44.17;96714.31;4989458;28;20058;-54
2023/11/01 09:02:28;;;;;;;2.70;2.60;;;;;;;23.52;43.71;96733.00;4999290;28;20076;-55
2023/11/01 09:04:56;;;;;;;3.00;2.90;;;;;;;23.35;43.24;96680.72;4997962;28;20135;-60
2023/11/01 09:07:23;;;;;;;2.60;2.50;;;;;;;23.82;43.42;96732.22;4990491;28;20058;-65
2023/11/01 09:09:51;;;;;;;3.03;2.92;;;;;;;24.03;42.19;96722.88;4996619;28;20449;-60
2023/11/01 09:12:17;;;;;;;3.10;3.00;;;;;;;24.06;42.04;96727.59;4997962;28;20054;-63
2023/11/01 09:14:45;;;;;;;3.00;2.90;;;;;;;23.95;40.61;96687.59;5000656;28;20146;-58
2023/11/01 09:17:13;;;;;;;2.92;2.83;;;;;;;24.19;40.39;96728.28;5002383;28;20165;-57
2023/11/01 09:19:40;;;;;;;3.10;3.00;;;;;;;23.29;40.47;96606.28;5001068;28;20060;-57
2023/11/01 09:22:08;;;;;;;2.95;2.85;;;;;;;24.35;40.53;96710.22;5000657;28;20056;-66
2023/11/01 09:24:35;;;;;;;3.05;2.95;;;;;;;24.44;40.06;96708.19;5000571;28;20108;-64
2023/11/01 09:27:03;;;;;;;3.17;3.08;;;;;;;24.64;40.10;96717.03;4999545;28;20054;-56
2023/11/01 09:29:30;;;;;;;3.08;2.97;;;;;;;23.12;39.99;96477.75;4996770;28;20543;-58
2023/11/01 09:31:57;;;;;;;3.03;2.92;;;;;;;24.68;39.42;96712.03;4990852;28;20472;-67
2023/11/01 09:34:23;;;;;;;3.38;3.28;;;;;;;24.11;39.67;96633.59;4991769;28;20108;-55
2023/11/01 09:36:51;;;;;;;3.08;2.97;;;;;;;24.57;39.76;96705.22;4996753;28;20136;-63
2023/11/01 09:39:19;;;;;;;3.40;3.30;;;;;;;23.98;39.91;96647.06;4995512;28;20050;-66
2023/11/01 09:41:54;;;;;;;2.63;2.53;;;;;;;23.57;39.49;96653.19;5003480;28;20053;-58
2023/11/01 09:44:21;;;;;;;3.10;3.00;;;;;;;23.94;39.56;96708.66;4997060;28;20541;-69
2023/11/01 09:46:49;;;;;;;3.00;2.90;;;;;;;24.05;39.46;96696.94;4989749;28;20060;-59
2023/11/01 09:49:16;;;;;;;3.00;2.90;;;;;;;24.35;38.48;96694.03;4996703;28;20056;-59
2023/11/01 09:51:44;;;;;;;3.00;2.90;;;;;;;24.66;38.44;96691.88;5000666;28;20132;-59
2023/11/01 09:54:14;;;;;;;2.95;2.85;;;;;;;24.05;38.48;96652.44;4994038;28;20147;-56
2023/11/01 09:56:42;;;;;;;2.90;2.80;;;;;;;24.16;38.55;96689.56;5001532;28;20515;-55
2023/11/01 09:59:09;;;;;;;2.80;2.70;;;;;;;24.54;37.88;96692.78;5000735;28;20094;-63
2023/11/01 10:01:37;;;;;;;3.17;3.08;;;;;;;24.80;37.46;96691.25;4998869;28;21746;-67
2023/11/01 10:04:05;;;;;;;3.30;3.20;;;;;;;25.13;38.23;96675.13;4998516;28;20157;-63
2023/11/01 10:06:35;;;;;;;3.05;2.95;;;;;;;25.17;38.60;96687.13;4998383;28;20060;-55
2023/11/01 10:09:02;;;;;;;3.10;3.00;;;;;;;25.35;38.44;96677.03;5000018;28;20050;-57
2023/11/01 10:11:31;;;;;;;3.33;3.22;;;;;;;25.38;38.69;96676.06;5001911;28;20164;-58
2023/11/01 10:13:59;;;;;;;3.35;3.25;;;;;;;25.21;38.03;96602.66;4993356;28;20058;-55
2023/11/01 10:16:27;;;;;;;3.80;3.70;;;;;;;25.49;39.83;96677.16;5006556;28;20088;-62
2023/11/01 10:18:54;;;;;;;3.25;3.15;;;;;;;25.06;40.70;96661.31;5005314;28;20075;-62
2023/11/01 10:21:26;;;;;;;3.10;3.00;;;;;;;25.05;40.91;96673.88;5005511;28;20875;-55
2023/11/01 10:24:01;;;;;;;3.05;2.95;;;;;;;24.92;41.83;96681.00;5005102;28;20050;-60
2023/11/01 10:26:29;;;;;;;2.92;2.83;;;;;;;24.79;41.67;96647.16;5005557;28;20504;-61
2023/11/01 10:28:57;;;;;;;3.17;3.08;;;;;;;24.97;41.43;96671.88;5004186;28;20069;-55
2023/11/01 10:31:24;;;;;;;2.92;2.83;;;;;;;24.03;43.01;96637.97;5005404;28;20060;-56
2023/11/01 10:33:52;;;;;;;2.88;2.78;;;;;;;24.11;44.91;96680.91;5005688;28;20088;-60
2023/11/01 10:36:20;;;;;;;2.90;2.80;;;;;;;23.64;44.99;96645.22;5005998;28;20081;-55
2023/11/01 10:38:51;;;;;;;2.70;2.60;;;;;;;23.81;45.54;96688.97;4990035;28;20143;-61
2023/11/01 10:41:19;;;;;;;2.80;2.70;;;;;;;23.82;45.74;96706.75;4988917;28;20042;-64
2023/11/01 10:43:46;;;;;;;2.95;2.85;;;;;;;23.61;45.91;96662.34;4998489;28;20060;-60
2023/11/01 10:46:15;;;;;;;2.67;2.58;;;;;;;23.19;46.31;96638.56;5001008;28;20149;-69
2023/11/01 10:48:44;;;;;;;2.70;2.60;;;;;;;22.94;46.44;96596.31;4992087;28;20042;-57
2023/11/01 10:51:11;;;;;;;2.40;2.35;;;;;;;23.37;46.57;96681.06;4992203;28;20046;-63
2023/11/01 10:53:39;;;;;;;2.70;2.60;;;;;;;23.32;46.28;96678.84;4995864;28;20061;-57
2023/11/01 10:56:07;;;;;;;2.65;2.55;;;;;;;23.21;46.58;96684.09;5002477;28;20057;-63
2023/11/01 10:58:39;;;;;;;2.80;2.70;;;;;;;21.20;46.87;96408.44;4998674;28;20141;-71
2023/11/01 11:01:15;;;;;;;2.55;2.45;;;;;;;22.74;47.15;96677.78;5002880;28;20049;-61
2023/11/01 11:04:09;;;;;;;2.72;2.63;;;;;;;22.53;47.42;96673.72;4993407;28;20340;-63
2023/11/01 11:06:52;;;;;;;2.55;2.45;;;;;;;22.29;48.39;96676.13;5001303;28;20132;-56
2023/11/01 11:09:22;;;;;;;2.30;2.30;;;;;;;22.08;48.85;96676.84;5002656;28;20073;-58
2023/11/01 11:12:15;;;;;;;2.50;2.40;;;;;;;22.30;48.78;96677.69;5000771;28;20054;-59
2023/11/01 11:14:45;;;;;;;2.35;2.30;;;;;;;22.44;48.50;96677.22;5001480;28;20056;-61
2023/11/01 11:17:14;;;;;;;2.40;2.30;;;;;;;22.17;48.08;96645.94;5003347;28;20080;-56
2023/11/01 11:20:09;;;;;;;2.60;2.50;;;;;;;22.34;48.70;96674.75;5002893;28;20570;-61
2023/11/01 11:22:58;;;;;;;2.50;2.40;;;;;;;22.42;48.21;96671.25;5000700;28;20057;-64
2023/11/01 11:25:37;;;;;;;2.20;2.20;;;;;;;22.78;47.91;96661.53;4994869;28;20069;-56
2023/11/01 11:28:07;;;;;;;2.65;2.55;;;;;;;22.92;47.28;96649.69;5003096;28;20505;-57
2023/11/01 11:31:01;;;;;;;2.70;2.60;;;;;;;23.34;46.79;96671.50;4999143;28;20081;-58
2023/11/01 11:33:29;;;;;;;2.88;2.78;;;;;;;20.76;45.41;96235.00;5005096;28;20058;-58
2023/11/01 11:36:18;;;;;;;2.78;2.67;;;;;;;23.61;45.06;96676.47;5004653;28;20054;-64
2023/11/01 11:38:52;;;;;;;2.90;2.80;;;;;;;24.05;44.38;96672.25;5004436;28;20421;-64